Arklow Raider — EIXS — position and weather

sailwx.info

Track history (hours):
 
Tides and Currents Weather Stations Pressure Air Temp Water Temp Dewpoint Dewpoint Depression Visibility Wind Speed Wind Dir Waves Ship Positions

Arklow Raider

Last reported at 2015-Jan-27 16:33 UTC. Time now 2015-Jan-27 16:54 UTC.
Position N 53°23' W 002°60'.

Length 90 m; draft 3.6 m.

Type: Ship. MMSI: 250001268.

Date/timePositionNaut miles runAvg speedWind from/ knotsBaromVisibWave heightAir tempDewpointWater temp
2015-Jan-27 16:33N 53°23' W 002°60'4 3.0
2015-Jan-27 15:18N 53°21' W 002°55'0 0.1
2015-Jan-27 14:12N 53°21' W 002°55'0 0.0
2015-Jan-27 13:18N 53°21' W 002°55'0 0.0
2015-Jan-27 11:24N 53°21' W 002°55'0 0.0
2015-Jan-27 10:30N 53°21' W 002°55'0 0.0
2015-Jan-27 09:18N 53°21' W 002°55'0 0.0
2015-Jan-27 08:30N 53°21' W 002°55'0 0.0
2015-Jan-27 07:30N 53°21' W 002°55'0 0.0
2015-Jan-27 06:24N 53°21' W 002°55'0 0.0
2015-Jan-27 04:24N 53°21' W 002°55'0 0.0
2015-Jan-27 03:30N 53°21' W 002°55'0 0.0
2015-Jan-27 02:24N 53°21' W 002°55'0 0.0
2015-Jan-27 01:12N 53°21' W 002°55'0 0.0
2015-Jan-27 00:12N 53°21' W 002°55'0 0.0
2015-Jan-26 23:24N 53°21' W 002°55'0 0.0
2015-Jan-26 21:30N 53°21' W 002°55'0 0.0
2015-Jan-26 20:30N 53°21' W 002°55'0 0.0
2015-Jan-26 19:18N 53°21' W 002°55'0 0.0
2015-Jan-26 18:24N 53°21' W 002°55'0 0.0
2015-Jan-26 17:30N 53°21' W 002°55'0 0.0
2015-Jan-26 13:06N 53°21' W 002°55'0 0.0
2015-Jan-26 12:24N 53°21' W 002°55'0 0.0
2015-Jan-26 11:24N 53°21' W 002°55'0 0.0
2015-Jan-26 10:30N 53°21' W 002°55'0 0.0
2015-Jan-26 09:30N 53°21' W 002°55'0 0.0
2015-Jan-26 08:24N 53°21' W 002°55'0 0.0
2015-Jan-26 07:18N 53°21' W 002°55'0 0.0
2015-Jan-26 06:30N 53°21' W 002°55'0 0.0
2015-Jan-26 05:06N 53°21' W 002°55'0 0.0
2015-Jan-26 02:24N 53°21' W 002°55'0 0.0
2015-Jan-26 00:24N 53°21' W 002°55'0 0.0
2015-Jan-25 23:18N 53°21' W 002°55'0 0.0
2015-Jan-25 22:12N 53°21' W 002°55'0 0.0
2015-Jan-25 21:24N 53°21' W 002°55'0 0.0
2015-Jan-25 20:30N 53°21' W 002°55'0 0.0
2015-Jan-25 19:18N 53°21' W 002°55'0 0.0
2015-Jan-25 18:30N 53°21' W 002°55'0 0.0
2015-Jan-25 17:30N 53°21' W 002°55'0 0.0
2015-Jan-25 16:24N 53°21' W 002°55'0 0.0
2015-Jan-25 15:24N 53°21' W 002°55'0 0.0
2015-Jan-25 14:24N 53°21' W 002°55'0 0.0
2015-Jan-25 13:24N 53°21' W 002°55'0 0.0
2015-Jan-25 12:12N 53°21' W 002°55'0 0.0
2015-Jan-25 11:24N 53°21' W 002°55'0 0.0
2015-Jan-25 09:30N 53°21' W 002°55'0 0.0
2015-Jan-25 08:30N 53°21' W 002°55'0 0.0
2015-Jan-25 07:25N 53°21' W 002°55'0 0.0
2015-Jan-25 06:18N 53°21' W 002°55'0 0.0
2015-Jan-25 05:30N 53°21' W 002°55'0 0.0
2015-Jan-25 04:12N 53°21' W 002°55'0 0.0
2015-Jan-25 03:30N 53°21' W 002°55'0 0.0
2015-Jan-25 02:30N 53°21' W 002°55'0 0.0
2015-Jan-25 01:24N 53°21' W 002°55'0 0.0
2015-Jan-24 23:30N 53°21' W 002°55'0 0.0
2015-Jan-24 21:30N 53°21' W 002°55'0 0.0
2015-Jan-24 20:24N 53°21' W 002°55'0 0.0
2015-Jan-24 19:12N 53°21' W 002°55'0 0.0
2015-Jan-24 18:24N 53°21' W 002°55'0 0.0
2015-Jan-24 17:06N 53°21' W 002°55'0 0.0
2015-Jan-24 16:18N 53°21' W 002°55'0 0.0
2015-Jan-24 15:18N 53°21' W 002°55'0 0.0
2015-Jan-24 14:30N 53°21' W 002°55'0 0.0
2015-Jan-24 13:24N 53°21' W 002°55'0 0.0
2015-Jan-24 12:06N 53°21' W 002°55'0 0.0
2015-Jan-24 11:18N 53°21' W 002°55'0 0.0
2015-Jan-24 10:24N 53°21' W 002°55'0 0.0
2015-Jan-24 08:30N 53°21' W 002°55'0 0.0
2015-Jan-24 07:06N 53°21' W 002°55'0 0.0
2015-Jan-24 06:30N 53°21' W 002°55'0 0.0
2015-Jan-24 05:24N 53°21' W 002°55'0 0.0
2015-Jan-24 04:24N 53°21' W 002°55'0 0.0
2015-Jan-24 02:33N 53°21' W 002°55'1 0.8
2015-Jan-24 01:33N 53°22' W 002°56'9 8.9
2015-Jan-24 00:33N 53°29' W 003°05'9 8.6
2015-Jan-23 23:32N 53°31' W 003°19'2 1.5
2015-Jan-23 22:32N 53°30' W 003°20'2 1.7
2015-Jan-23 21:33N 53°31' W 003°18'  
2015-Jan-19 04:23N 39°12' W 009°51'4 5.1
2015-Jan-19 03:32N 39°08' W 009°51'5 4.9
2015-Jan-19 02:32N 39°03' W 009°51'5 4.7
2015-Jan-19 01:26N 38°57' W 009°50'4 4.5
2015-Jan-19 00:32N 38°53' W 009°50'6 5.1
2015-Jan-18 23:23N 38°48' W 009°50'4 5.1
2015-Jan-18 22:32N 38°43' W 009°51'6 5.9
2015-Jan-18 21:28N 38°37' W 009°48'7 6.8
2015-Jan-18 20:30N 38°31' W 009°47'8 8.1
2015-Jan-18 19:30N 38°23' W 009°45'9 8.8
2015-Jan-18 18:31N 38°14' W 009°42'9 9.1
2015-Jan-18 17:33N 38°06' W 009°40'  
Track history (hours):
 
Tides and Currents Weather Stations Pressure Air Temp Water Temp Dewpoint Dewpoint Depression Visibility Wind Speed Wind Dir Waves Ship Positions

Arklow Raider

Last reported at 2015-Jan-27 16:33 UTC. Time now 2015-Jan-27 16:54 UTC.
Position N 53°23' W 002°60'.

Length 90 m; draft 3.6 m.

Type: Ship. MMSI: 250001268.

Date/timePositionNaut miles runAvg speedWind from/ knotsBaromVisibWave heightAir tempDewpointWater temp
2015-Jan-27 16:33N 53°23' W 002°60'4 3.0
2015-Jan-27 15:18N 53°21' W 002°55'0 0.1
2015-Jan-27 14:12N 53°21' W 002°55'0 0.0
2015-Jan-27 13:18N 53°21' W 002°55'0 0.0
2015-Jan-27 11:24N 53°21' W 002°55'0 0.0
2015-Jan-27 10:30N 53°21' W 002°55'0 0.0
2015-Jan-27 09:18N 53°21' W 002°55'0 0.0
2015-Jan-27 08:30N 53°21' W 002°55'0 0.0
2015-Jan-27 07:30N 53°21' W 002°55'0 0.0
2015-Jan-27 06:24N 53°21' W 002°55'0 0.0
2015-Jan-27 04:24N 53°21' W 002°55'0 0.0
2015-Jan-27 03:30N 53°21' W 002°55'0 0.0
2015-Jan-27 02:24N 53°21' W 002°55'0 0.0
2015-Jan-27 01:12N 53°21' W 002°55'0 0.0
2015-Jan-27 00:12N 53°21' W 002°55'0 0.0
2015-Jan-26 23:24N 53°21' W 002°55'0 0.0
2015-Jan-26 21:30N 53°21' W 002°55'0 0.0
2015-Jan-26 20:30N 53°21' W 002°55'0 0.0
2015-Jan-26 19:18N 53°21' W 002°55'0 0.0
2015-Jan-26 18:24N 53°21' W 002°55'0 0.0
2015-Jan-26 17:30N 53°21' W 002°55'0 0.0
2015-Jan-26 13:06N 53°21' W 002°55'0 0.0
2015-Jan-26 12:24N 53°21' W 002°55'0 0.0
2015-Jan-26 11:24N 53°21' W 002°55'0 0.0
2015-Jan-26 10:30N 53°21' W 002°55'0 0.0
2015-Jan-26 09:30N 53°21' W 002°55'0 0.0
2015-Jan-26 08:24N 53°21' W 002°55'0 0.0
2015-Jan-26 07:18N 53°21' W 002°55'0 0.0
2015-Jan-26 06:30N 53°21' W 002°55'0 0.0
2015-Jan-26 05:06N 53°21' W 002°55'0 0.0
2015-Jan-26 02:24N 53°21' W 002°55'0 0.0
2015-Jan-26 00:24N 53°21' W 002°55'0 0.0
2015-Jan-25 23:18N 53°21' W 002°55'0 0.0
2015-Jan-25 22:12N 53°21' W 002°55'0 0.0
2015-Jan-25 21:24N 53°21' W 002°55'0 0.0
2015-Jan-25 20:30N 53°21' W 002°55'0 0.0
2015-Jan-25 19:18N 53°21' W 002°55'0 0.0
2015-Jan-25 18:30N 53°21' W 002°55'0 0.0
2015-Jan-25 17:30N 53°21' W 002°55'0 0.0
2015-Jan-25 16:24N 53°21' W 002°55'0 0.0
2015-Jan-25 15:24N 53°21' W 002°55'0 0.0
2015-Jan-25 14:24N 53°21' W 002°55'0 0.0
2015-Jan-25 13:24N 53°21' W 002°55'0 0.0
2015-Jan-25 12:12N 53°21' W 002°55'0 0.0
2015-Jan-25 11:24N 53°21' W 002°55'0 0.0
2015-Jan-25 09:30N 53°21' W 002°55'0 0.0
2015-Jan-25 08:30N 53°21' W 002°55'0 0.0
2015-Jan-25 07:25N 53°21' W 002°55'0 0.0
2015-Jan-25 06:18N 53°21' W 002°55'0 0.0
2015-Jan-25 05:30N 53°21' W 002°55'0 0.0
2015-Jan-25 04:12N 53°21' W 002°55'0 0.0
2015-Jan-25 03:30N 53°21' W 002°55'0 0.0
2015-Jan-25 02:30N 53°21' W 002°55'0 0.0
2015-Jan-25 01:24N 53°21' W 002°55'0 0.0
2015-Jan-24 23:30N 53°21' W 002°55'0 0.0
2015-Jan-24 21:30N 53°21' W 002°55'0 0.0
2015-Jan-24 20:24N 53°21' W 002°55'0 0.0
2015-Jan-24 19:12N 53°21' W 002°55'0 0.0
2015-Jan-24 18:24N 53°21' W 002°55'0 0.0
2015-Jan-24 17:06N 53°21' W 002°55'0 0.0
2015-Jan-24 16:18N 53°21' W 002°55'0 0.0
2015-Jan-24 15:18N 53°21' W 002°55'0 0.0
2015-Jan-24 14:30N 53°21' W 002°55'0 0.0
2015-Jan-24 13:24N 53°21' W 002°55'0 0.0
2015-Jan-24 12:06N 53°21' W 002°55'0 0.0
2015-Jan-24 11:18N 53°21' W 002°55'0 0.0
2015-Jan-24 10:24N 53°21' W 002°55'0 0.0
2015-Jan-24 08:30N 53°21' W 002°55'0 0.0
2015-Jan-24 07:06N 53°21' W 002°55'0 0.0
2015-Jan-24 06:30N 53°21' W 002°55'0 0.0
2015-Jan-24 05:24N 53°21' W 002°55'0 0.0
2015-Jan-24 04:24N 53°21' W 002°55'0 0.0
2015-Jan-24 02:33N 53°21' W 002°55'1 0.8
2015-Jan-24 01:33N 53°22' W 002°56'9 8.9
2015-Jan-24 00:33N 53°29' W 003°05'9 8.6
2015-Jan-23 23:32N 53°31' W 003°19'2 1.5
2015-Jan-23 22:32N 53°30' W 003°20'2 1.7
2015-Jan-23 21:33N 53°31' W 003°18'  
2015-Jan-19 04:23N 39°12' W 009°51'4 5.1
2015-Jan-19 03:32N 39°08' W 009°51'5 4.9
2015-Jan-19 02:32N 39°03' W 009°51'5 4.7
2015-Jan-19 01:26N 38°57' W 009°50'4 4.5
2015-Jan-19 00:32N 38°53' W 009°50'6 5.1
2015-Jan-18 23:23N 38°48' W 009°50'4 5.1
2015-Jan-18 22:32N 38°43' W 009°51'6 5.9
2015-Jan-18 21:28N 38°37' W 009°48'7 6.8
2015-Jan-18 20:30N 38°31' W 009°47'8 8.1
2015-Jan-18 19:30N 38°23' W 009°45'9 8.8
2015-Jan-18 18:31N 38°14' W 009°42'9 9.1
2015-Jan-18 17:33N 38°06' W 009°40'  

Dump ship's entire track history